createdAt,value
2019-05-23T00:01:45.503Z,98.26
2019-05-23T00:04:21.071Z,98.66
2019-05-23T00:06:52.190Z,98.26
2019-05-23T00:09:23.898Z,98.40
2019-05-23T00:12:14.057Z,98.12
2019-05-23T00:14:51.969Z,98.07
2019-05-23T00:17:24.546Z,98.33
2019-05-23T00:19:56.360Z,98.25
2019-05-23T00:22:29.306Z,98.27
2019-05-23T00:25:00.911Z,98.53
2019-05-23T00:27:32.210Z,98.45
2019-05-23T00:30:04.478Z,98.31
2019-05-23T00:32:42.990Z,98.66
2019-05-23T00:35:15.142Z,98.48
2019-05-23T00:37:47.570Z,98.01
2019-05-23T00:40:19.816Z,98.22
2019-05-23T00:42:51.904Z,98.32
2019-05-23T00:45:24.216Z,97.77
2019-05-23T00:47:55.235Z,97.96
2019-05-23T00:50:26.546Z,97.93
2019-05-23T00:52:58.223Z,97.96
2019-05-23T00:55:29.049Z,97.88
2019-05-23T00:58:00.516Z,97.86
2019-05-23T01:00:32.628Z,97.92
2019-05-23T01:03:05.429Z,97.97
2019-05-23T01:05:36.883Z,98.06
2019-05-23T01:08:07.482Z,98.10
2019-05-23T01:10:39.750Z,98.27
2019-05-23T01:13:10.655Z,98.17
2019-05-23T01:15:41.969Z,97.87
2019-05-23T01:18:13.404Z,98.39
2019-05-23T01:21:01.142Z,98.01
2019-05-23T01:23:33.388Z,97.87
2019-05-23T01:26:04.702Z,98.39
2019-05-23T01:28:35.325Z,98.68
2019-05-23T01:31:26.375Z,98.67
2019-05-23T01:33:58.663Z,98.54
2019-05-23T01:36:29.956Z,98.67
2019-05-23T01:39:01.761Z,98.58
2019-05-23T01:41:32.357Z,98.89
2019-05-23T01:44:04.186Z,99.27
2019-05-23T01:46:38.518Z,99.62
2019-05-23T01:49:10.073Z,99.27
2019-05-23T01:51:40.762Z,99.08
2019-05-23T01:54:12.054Z,99.38
2019-05-23T01:56:44.712Z,98.80
2019-05-23T01:59:16.814Z,99.25
2019-05-23T02:01:47.506Z,99.18
2019-05-23T02:04:21.449Z,99.64
2019-05-23T02:06:52.251Z,99.91
2019-05-23T02:09:23.979Z,99.80
2019-05-23T02:11:56.675Z,99.80
2019-05-23T02:14:28.149Z,99.91
2019-05-23T02:17:01.191Z,99.46
2019-05-23T02:19:32.099Z,99.61
2019-05-23T02:22:04.502Z,100.00
2019-05-23T02:24:35.981Z,100.00
2019-05-23T02:27:10.055Z,99.87
2019-05-23T02:29:43.100Z,100.00
2019-05-23T02:32:16.251Z,100.00
2019-05-23T02:34:47.573Z,99.96
2019-05-23T02:37:20.184Z,100.00
2019-05-23T02:40:03.809Z,99.55
2019-05-23T02:42:39.457Z,99.84
2019-05-23T02:45:13.015Z,99.90
2019-05-23T02:47:52.223Z,100.00
2019-05-23T02:50:26.555Z,100.00
2019-05-23T02:52:59.090Z,100.00
2019-05-23T02:55:35.263Z,100.00
2019-05-23T02:58:20.907Z,100.00
2019-05-23T03:01:10.999Z,100.00
2019-05-23T03:03:45.768Z,100.00
2019-05-23T03:06:19.716Z,100.00
2019-05-23T03:08:52.461Z,100.00
2019-05-23T03:11:33.633Z,100.00
2019-05-23T03:14:05.922Z,100.00
2019-05-23T03:16:39.549Z,100.00
2019-05-23T03:19:23.681Z,100.00
2019-05-23T03:21:58.433Z,100.00
2019-05-23T03:24:29.826Z,100.00
2019-05-23T03:27:04.334Z,100.00
2019-05-23T03:29:36.034Z,100.00
2019-05-23T03:32:23.223Z,100.00
2019-05-23T03:34:56.296Z,100.00
2019-05-23T03:37:27.911Z,100.00
2019-05-23T03:40:00.446Z,100.00
2019-05-23T03:42:31.044Z,99.75
2019-05-23T03:45:03.542Z,99.90
2019-05-23T03:47:37.863Z,100.00
2019-05-23T03:50:12.410Z,99.08
2019-05-23T03:52:44.248Z,98.63
2019-05-23T03:55:16.464Z,98.39
2019-05-23T03:57:49.314Z,97.76
2019-05-23T04:00:21.947Z,97.75
2019-05-23T04:02:52.554Z,97.42
2019-05-23T04:05:24.580Z,95.46
2019-05-23T04:07:55.393Z,93.02
2019-05-23T04:10:26.925Z,91.45
2019-05-23T04:12:58.628Z,93.02
2019-05-23T04:15:29.601Z,93.36
2019-05-23T04:18:00.307Z,92.69
2019-05-23T04:20:31.858Z,91.21
2019-05-23T04:23:02.760Z,88.95
2019-05-23T04:25:34.786Z,89.79
2019-05-23T04:28:06.119Z,90.51
2019-05-23T04:30:36.947Z,89.78
2019-05-23T04:33:09.379Z,90.98
2019-05-23T04:35:40.386Z,90.90
2019-05-23T04:38:11.326Z,90.69
2019-05-23T04:40:43.218Z,90.48
2019-05-23T04:43:13.814Z,90.91
2019-05-23T04:45:48.901Z,91.29
2019-05-23T04:48:20.804Z,91.71
2019-05-23T04:50:59.710Z,90.46
2019-05-23T04:53:29.760Z,87.23
2019-05-23T04:56:02.192Z,84.57
2019-05-23T04:58:33.890Z,79.46
2019-05-23T05:01:06.317Z,75.43
2019-05-23T05:03:41.469Z,73.81
2019-05-23T05:06:15.141Z,72.50
2019-05-23T05:08:46.549Z,78.09
2019-05-23T05:11:17.460Z,76.04
2019-05-23T05:13:50.289Z,73.90
2019-05-23T05:16:22.764Z,73.04
2019-05-23T05:18:56.007Z,78.66
2019-05-23T05:21:29.121Z,80.85
2019-05-23T05:24:00.718Z,80.39
2019-05-23T05:26:33.618Z,79.93
2019-05-23T05:29:05.294Z,74.15
2019-05-23T05:31:36.941Z,70.64
2019-05-23T05:34:09.482Z,70.64
2019-05-23T05:36:43.765Z,72.56
2019-05-23T05:39:22.370Z,74.30
2019-05-23T05:41:54.699Z,75.84
2019-05-23T05:44:26.236Z,76.09
2019-05-23T05:46:57.163Z,75.86
2019-05-23T05:49:29.930Z,78.10
2019-05-23T05:52:02.223Z,78.65
2019-05-23T05:54:32.843Z,80.02
2019-05-23T05:57:10.239Z,80.78
2019-05-23T05:59:37.166Z,80.18
2019-05-23T06:02:11.595Z,79.11
2019-05-23T06:04:43.501Z,79.76
2019-05-23T06:07:16.126Z,80.26
2019-05-23T06:09:49.782Z,80.25
2019-05-23T06:12:22.553Z,79.59
2019-05-23T06:14:53.653Z,80.44
2019-05-23T06:17:24.394Z,77.07
2019-05-23T06:19:55.494Z,73.09
2019-05-23T06:22:28.455Z,71.08
2019-05-23T06:25:02.561Z,68.64
2019-05-23T06:27:34.781Z,70.53
2019-05-23T06:30:08.610Z,71.35
2019-05-23T06:32:39.578Z,73.24
2019-05-23T06:35:14.016Z,70.98
2019-05-23T06:37:46.045Z,68.39
2019-05-23T06:40:16.640Z,69.14
2019-05-23T06:42:50.920Z,70.90
2019-05-23T06:45:21.858Z,71.14
2019-05-23T06:47:52.862Z,72.10
2019-05-23T06:50:24.101Z,72.50
2019-05-23T06:52:54.721Z,69.39
2019-05-23T06:55:25.369Z,68.88
2019-05-23T06:57:55.943Z,67.09
2019-05-23T07:00:27.502Z,66.57
2019-05-23T07:02:58.340Z,69.71
2019-05-23T07:05:32.352Z,65.55
2019-05-23T07:08:05.429Z,67.24
2019-05-23T07:10:42.803Z,71.73
2019-05-23T07:13:13.982Z,74.18
2019-05-23T07:15:45.339Z,74.92
2019-05-23T07:18:16.617Z,71.51
2019-05-23T07:20:47.359Z,71.81
2019-05-23T07:23:18.966Z,70.61
2019-05-23T07:25:50.277Z,73.25
2019-05-23T07:28:21.043Z,74.81
2019-05-23T07:30:52.110Z,73.39
2019-05-23T07:33:23.987Z,71.62
2019-05-23T07:35:55.086Z,70.22
2019-05-23T07:38:25.757Z,69.26
2019-05-23T07:40:57.093Z,68.54
2019-05-23T07:43:28.110Z,66.25
2019-05-23T07:45:59.369Z,66.96
2019-05-23T07:48:31.562Z,66.83
2019-05-23T07:51:02.377Z,67.00
2019-05-23T07:53:44.172Z,65.16
2019-05-23T07:56:19.765Z,67.66
2019-05-23T07:58:50.363Z,66.65
2019-05-23T08:01:28.661Z,65.64
2019-05-23T08:04:00.125Z,64.29
2019-05-23T08:06:31.499Z,62.70
2019-05-23T08:09:02.188Z,60.88
2019-05-23T08:11:33.022Z,61.71
2019-05-23T08:14:03.982Z,61.60
2019-05-23T08:16:34.753Z,61.37
2019-05-23T08:19:05.745Z,60.85
2019-05-23T08:21:39.005Z,59.53
2019-05-23T08:24:11.390Z,61.62
2019-05-23T08:26:43.180Z,58.78
2019-05-23T08:29:26.646Z,59.76
2019-05-23T08:31:51.950Z,58.30
2019-05-23T08:34:39.990Z,59.57
2019-05-23T08:36:58.267Z,61.36
2019-05-23T08:39:30.916Z,59.35
2019-05-23T08:42:03.588Z,61.33
2019-05-23T08:44:34.219Z,61.48
2019-05-23T08:47:06.682Z,62.50
2019-05-23T08:49:37.619Z,61.77
2019-05-23T08:52:09.108Z,59.04
2019-05-23T08:54:39.903Z,58.59
2019-05-23T08:57:11.126Z,58.06
2019-05-23T08:59:44.071Z,56.71
2019-05-23T09:02:14.834Z,55.67
2019-05-23T09:05:03.365Z,54.52
2019-05-23T09:07:19.094Z,54.01
2019-05-23T09:09:50.613Z,54.19
2019-05-23T09:12:21.801Z,55.08
2019-05-23T09:14:53.010Z,54.85
2019-05-23T09:17:23.582Z,58.92
2019-05-23T09:19:55.300Z,57.03
2019-05-23T09:22:27.903Z,57.03
2019-05-23T09:24:58.614Z,54.63
2019-05-23T09:27:29.310Z,54.39
2019-05-23T09:30:02.146Z,52.47
2019-05-23T09:32:32.777Z,50.91
2019-05-23T09:35:19.725Z,54.24
2019-05-23T09:37:37.217Z,57.96
2019-05-23T09:40:08.222Z,54.82
2019-05-23T09:42:38.815Z,53.55
2019-05-23T09:45:09.750Z,60.12
2019-05-23T09:47:40.757Z,60.12
2019-05-23T09:50:16.021Z,60.19
2019-05-23T09:52:47.127Z,60.88
2019-05-23T09:55:19.029Z,61.37
2019-05-23T09:57:49.594Z,62.68
2019-05-23T10:00:23.516Z,64.51
2019-05-23T10:02:54.206Z,66.16
2019-05-23T10:05:41.959Z,67.21
2019-05-23T10:07:57.302Z,66.19
2019-05-23T10:10:30.106Z,67.61
2019-05-23T10:13:00.659Z,67.14
2019-05-23T10:15:40.554Z,67.33
2019-05-23T10:18:22.383Z,65.59
2019-05-23T10:20:53.169Z,64.68
2019-05-23T10:23:23.768Z,65.58
2019-05-23T10:25:54.367Z,65.72
2019-05-23T10:28:24.961Z,64.16
2019-05-23T10:30:55.565Z,63.41
2019-05-23T10:33:26.180Z,65.75
2019-05-23T10:36:00.734Z,65.98
2019-05-23T10:38:29.604Z,66.15
2019-05-23T10:41:00.761Z,64.91
2019-05-23T10:43:31.441Z,65.77
2019-05-23T10:46:02.154Z,64.94
2019-05-23T10:51:21.688Z,62.38
2019-05-23T10:53:52.507Z,63.07
2019-05-23T10:56:23.177Z,61.21
2019-05-23T10:58:53.726Z,61.26
2019-05-23T11:01:24.852Z,61.84
2019-05-23T11:03:55.577Z,62.18
2019-05-23T11:06:26.925Z,61.71
2019-05-23T11:08:57.749Z,62.62
2019-05-23T11:11:28.598Z,58.77
2019-05-23T11:13:59.659Z,57.13
2019-05-23T11:16:30.751Z,59.75
2019-05-23T11:19:01.826Z,58.19
2019-05-23T11:21:33.251Z,60.09
2019-05-23T11:24:06.135Z,60.78
2019-05-23T11:26:38.720Z,56.83
2019-05-23T11:29:09.736Z,55.94
2019-05-23T11:31:40.610Z,53.49
2019-05-23T11:34:11.422Z,53.49
2019-05-23T11:36:42.605Z,58.62
2019-05-23T11:39:15.554Z,58.62
2019-05-23T11:41:47.112Z,59.23
2019-05-23T11:44:18.150Z,58.87
2019-05-23T11:46:49.963Z,58.92
2019-05-23T11:49:22.151Z,59.42
2019-05-23T11:51:52.908Z,58.84
2019-05-23T11:54:24.657Z,62.13
2019-05-23T11:56:56.113Z,66.09
2019-05-23T11:59:26.751Z,64.30
2019-05-23T12:02:13.144Z,65.55
2019-05-23T12:04:44.803Z,65.96
2019-05-23T12:07:19.959Z,64.53
2019-05-23T12:09:50.798Z,65.83
2019-05-23T12:12:22.021Z,62.84
2019-05-23T12:14:53.916Z,63.04
2019-05-23T12:17:26.864Z,63.60
2019-05-23T12:19:58.267Z,64.78
2019-05-23T12:22:29.613Z,63.91
2019-05-23T12:25:19.963Z,62.11
2019-05-23T12:27:34.207Z,60.52
2019-05-23T12:30:12.309Z,62.70
2019-05-23T12:32:43.867Z,63.49
2019-05-23T12:35:16.544Z,63.49
2019-05-23T12:37:48.204Z,62.84
2019-05-23T12:40:22.623Z,63.01
2019-05-23T12:42:53.592Z,63.37
2019-05-23T12:45:24.493Z,60.24
2019-05-23T12:47:57.305Z,60.06
2019-05-23T12:50:53.749Z,61.32
2019-05-23T12:53:23.145Z,61.32
2019-05-23T12:55:53.860Z,61.35
2019-05-23T12:58:25.716Z,61.22
2019-05-23T13:01:04.030Z,59.45
2019-05-23T13:03:35.480Z,59.00
2019-05-23T13:06:06.937Z,59.88
2019-05-23T13:08:38.687Z,59.88
2019-05-23T13:11:09.934Z,59.85
2019-05-23T13:13:40.667Z,59.66
2019-05-23T13:16:12.525Z,58.21
2019-05-23T13:18:43.373Z,58.02
2019-05-23T13:21:15.029Z,58.03
2019-05-23T13:23:46.173Z,58.18
2019-05-23T13:26:17.208Z,57.29
2019-05-23T13:28:48.035Z,59.61
2019-05-23T13:31:19.185Z,59.61
2019-05-23T13:33:50.017Z,60.08
2019-05-23T13:36:20.851Z,57.38
2019-05-23T13:38:52.214Z,57.38
2019-05-23T13:41:23.654Z,58.67
2019-05-23T13:43:54.588Z,58.51
2019-05-23T13:46:25.730Z,58.09
2019-05-23T13:48:56.984Z,56.65
2019-05-23T13:51:28.037Z,56.59
2019-05-23T13:53:59.579Z,56.22
2019-05-23T13:56:30.726Z,57.50
2019-05-23T13:59:03.239Z,58.45
2019-05-23T14:01:37.107Z,54.18
2019-05-23T14:04:09.583Z,54.22
2019-05-23T14:06:40.532Z,52.05
2019-05-23T14:09:11.777Z,52.96
2019-05-23T14:11:43.017Z,52.20
2019-05-23T14:14:14.156Z,50.98
2019-05-23T14:17:03.831Z,51.88
2019-05-23T14:19:35.000Z,51.81
2019-05-23T14:22:06.422Z,53.62
2019-05-23T14:24:38.002Z,53.95
2019-05-23T14:27:30.937Z,53.18
2019-05-23T14:30:11.069Z,52.93
2019-05-23T14:32:41.824Z,53.01
2019-05-23T14:35:15.490Z,53.08
2019-05-23T14:37:48.629Z,53.25
2019-05-23T14:40:21.808Z,52.72
2019-05-23T14:43:08.046Z,51.31
2019-05-23T14:45:46.056Z,53.39
2019-05-23T14:48:22.579Z,53.68
2019-05-23T14:50:56.391Z,54.79
2019-05-23T14:53:33.050Z,57.87
2019-05-23T14:56:05.426Z,55.24
2019-05-23T14:58:37.168Z,55.56
2019-05-23T15:01:10.167Z,55.12
2019-05-23T15:03:42.162Z,53.92
2019-05-23T15:06:15.934Z,53.99
2019-05-23T15:08:51.631Z,53.86
2019-05-23T15:11:21.005Z,54.05
2019-05-23T15:13:52.898Z,54.53
2019-05-23T15:16:24.605Z,54.60
2019-05-23T15:18:56.743Z,55.84
2019-05-23T15:21:28.382Z,55.44
2019-05-23T15:23:59.983Z,56.44
2019-05-23T15:26:32.492Z,56.45
2019-05-23T15:29:05.050Z,56.70
2019-05-23T15:31:38.229Z,56.57
2019-05-23T15:34:10.703Z,56.89
2019-05-23T15:36:43.395Z,56.94
2019-05-23T15:39:15.467Z,56.90
2019-05-23T15:41:49.672Z,56.53
2019-05-23T15:44:26.516Z,56.09
2019-05-23T15:46:54.852Z,55.06
2019-05-23T15:49:26.775Z,55.45
2019-05-23T15:52:09.691Z,56.08
2019-05-23T15:54:49.098Z,55.40
2019-05-23T15:57:24.887Z,55.43
2019-05-23T15:59:58.591Z,55.15
2019-05-23T16:02:31.976Z,55.58
2019-05-23T16:05:05.591Z,55.34
2019-05-23T16:07:37.144Z,55.39
2019-05-23T16:10:10.459Z,56.32
2019-05-23T16:12:42.508Z,55.62
2019-05-23T16:15:14.262Z,55.62
2019-05-23T16:17:47.965Z,55.49
2019-05-23T16:20:27.056Z,55.34
2019-05-23T16:23:01.300Z,55.91
2019-05-23T16:25:33.418Z,56.10
2019-05-23T16:28:06.846Z,56.74
2019-05-23T16:30:40.368Z,56.77
2019-05-23T16:33:12.107Z,55.05
2019-05-23T16:35:47.669Z,55.89
2019-05-23T16:38:19.219Z,57.37
2019-05-23T16:40:52.653Z,57.87
2019-05-23T16:43:24.430Z,58.43
2019-05-23T16:46:10.537Z,60.48
2019-05-23T16:48:43.564Z,60.33
2019-05-23T16:51:15.218Z,61.81
2019-05-23T16:53:47.172Z,61.59
2019-05-23T16:56:23.107Z,63.24
2019-05-23T16:59:13.120Z,62.88
2019-05-23T17:01:55.971Z,63.91
2019-05-23T17:04:24.450Z,64.75
2019-05-23T17:07:12.961Z,66.15
2019-05-23T17:10:06.004Z,67.13
2019-05-23T17:12:30.197Z,68.19
2019-05-23T17:15:19.878Z,68.67
2019-05-23T17:18:10.844Z,69.18
2019-05-23T17:21:02.110Z,70.12
2019-05-23T17:23:50.656Z,71.02
2019-05-23T17:26:24.299Z,71.96
2019-05-23T17:29:02.154Z,72.50
2019-05-23T17:31:35.655Z,73.02
2019-05-23T17:34:16.694Z,73.93
2019-05-23T17:36:51.577Z,74.70
2019-05-23T17:39:24.279Z,75.13
2019-05-23T17:41:58.371Z,75.92
2019-05-23T17:44:30.212Z,76.89
2019-05-23T17:47:02.071Z,77.76
2019-05-23T17:49:36.711Z,78.57
2019-05-23T17:52:11.634Z,79.10
2019-05-23T17:54:44.028Z,79.47
2019-05-23T17:57:16.313Z,80.21
2019-05-23T17:59:48.486Z,80.81
2019-05-23T18:02:21.484Z,81.24
2019-05-23T18:04:52.978Z,81.73
2019-05-23T18:07:25.493Z,82.27
2019-05-23T18:09:58.344Z,82.76
2019-05-23T18:12:31.649Z,82.87
2019-05-23T18:15:04.855Z,83.15
2019-05-23T18:17:38.678Z,83.56
2019-05-23T18:20:12.105Z,84.00
2019-05-23T18:22:44.707Z,84.45
2019-05-23T18:25:18.002Z,84.79
2019-05-23T18:27:50.368Z,84.53
2019-05-23T18:30:34.010Z,84.71
2019-05-23T18:33:07.100Z,85.04
2019-05-23T18:35:41.307Z,85.52
2019-05-23T18:38:13.242Z,84.63
2019-05-23T18:41:01.743Z,84.43
2019-05-23T18:43:18.838Z,84.31
2019-05-23T18:45:52.439Z,83.91
2019-05-23T18:48:25.024Z,83.99
2019-05-23T18:50:59.650Z,84.12
2019-05-23T18:53:34.884Z,84.07
2019-05-23T18:56:08.289Z,84.46
2019-05-23T18:58:40.747Z,84.61
2019-05-23T19:01:14.261Z,84.72
2019-05-23T19:03:50.935Z,85.41
2019-05-23T19:06:26.021Z,85.91
2019-05-23T19:09:03.424Z,85.37
2019-05-23T19:11:41.962Z,83.92
2019-05-23T19:14:15.679Z,84.12
2019-05-23T19:16:47.931Z,84.07
2019-05-23T19:19:20.269Z,83.53
2019-05-23T19:21:52.795Z,83.65
2019-05-23T19:24:24.681Z,83.35
2019-05-23T19:26:57.276Z,83.59
2019-05-23T19:29:30.831Z,83.87
2019-05-23T19:32:07.656Z,84.01
2019-05-23T19:37:38.225Z,83.58
2019-05-23T19:40:24.876Z,83.28
2019-05-23T19:43:11.723Z,82.96
2019-05-23T19:45:54.096Z,83.12
2019-05-23T19:48:37.558Z,82.53
2019-05-23T19:51:21.478Z,82.27
2019-05-23T19:53:53.714Z,81.40
2019-05-23T19:56:28.934Z,81.18
2019-05-23T19:59:13.792Z,80.28
2019-05-23T20:01:57.959Z,79.77
2019-05-23T20:04:40.706Z,79.50
2019-05-23T20:07:15.525Z,79.42
2019-05-23T20:09:51.483Z,79.55
2019-05-23T20:12:29.834Z,79.69
2019-05-23T20:15:03.438Z,79.12
2019-05-23T20:17:39.385Z,78.85
2019-05-23T20:20:14.332Z,77.87
2019-05-23T20:22:49.011Z,77.90
2019-05-23T20:25:26.628Z,77.82
2019-05-23T20:27:59.944Z,78.11
2019-05-23T20:30:46.343Z,78.22
2019-05-23T20:33:20.218Z,77.95
2019-05-23T20:35:53.307Z,78.02
2019-05-23T20:38:25.577Z,78.25
2019-05-23T20:40:58.676Z,77.93
2019-05-23T20:43:30.884Z,77.66
2019-05-23T20:46:03.665Z,77.79
2019-05-23T20:48:37.089Z,77.90
2019-05-23T20:51:10.368Z,77.84
2019-05-23T20:53:42.349Z,77.88
2019-05-23T20:56:14.116Z,78.19
2019-05-23T20:58:46.271Z,78.18
2019-05-23T21:01:22.847Z,78.19
2019-05-23T21:03:55.418Z,78.44
2019-05-23T21:06:27.788Z,78.75
2019-05-23T21:09:01.801Z,77.90
2019-05-23T21:11:34.334Z,78.14
2019-05-23T21:14:06.544Z,77.54
2019-05-23T21:16:41.738Z,77.22
2019-05-23T21:19:14.267Z,77.88
2019-05-23T21:21:47.246Z,78.08
2019-05-23T21:24:18.772Z,78.00
2019-05-23T21:26:50.352Z,78.34
2019-05-23T21:29:22.364Z,78.20
2019-05-23T21:31:55.403Z,77.95
2019-05-23T21:34:29.723Z,77.58
2019-05-23T21:37:02.110Z,78.04
2019-05-23T21:39:34.538Z,77.67
2019-05-23T21:42:06.431Z,78.18
2019-05-23T21:44:38.391Z,78.50
2019-05-23T21:47:10.796Z,79.30
2019-05-23T21:49:42.747Z,79.75
2019-05-23T21:52:15.531Z,80.01
2019-05-23T21:54:47.680Z,79.89
2019-05-23T21:57:19.762Z,80.34
2019-05-23T21:59:51.632Z,80.60
2019-05-23T22:02:25.184Z,80.36
2019-05-23T22:04:58.501Z,79.35
2019-05-23T22:07:30.793Z,79.60
2019-05-23T22:10:02.861Z,79.61
2019-05-23T22:12:35.052Z,79.88
2019-05-23T22:15:07.900Z,79.43
2019-05-23T22:17:41.292Z,78.88
2019-05-23T22:20:13.772Z,78.65
2019-05-23T22:22:45.753Z,77.91
2019-05-23T22:25:20.779Z,77.93
2019-05-23T22:27:52.595Z,78.53
2019-05-23T22:30:24.265Z,79.36
2019-05-23T22:32:56.388Z,78.97
2019-05-23T22:35:29.324Z,79.18
2019-05-23T22:38:01.078Z,79.64
2019-05-23T22:40:33.141Z,79.65
2019-05-23T22:43:20.215Z,79.02
2019-05-23T22:45:39.260Z,78.91
2019-05-23T22:48:10.981Z,78.93
2019-05-23T22:50:43.053Z,79.01
2019-05-23T22:53:14.952Z,79.52
2019-05-23T22:55:48.186Z,78.72
2019-05-23T22:58:19.741Z,79.06
2019-05-23T23:00:51.829Z,79.35
2019-05-23T23:03:23.987Z,79.00
2019-05-23T23:05:57.279Z,79.63
2019-05-23T23:08:30.383Z,79.75
2019-05-23T23:11:02.225Z,79.24
2019-05-23T23:13:38.781Z,79.21
2019-05-23T23:16:09.151Z,78.33
2019-05-23T23:18:41.485Z,77.87
2019-05-23T23:21:13.348Z,77.93
2019-05-23T23:23:45.205Z,77.29
2019-05-23T23:26:17.170Z,77.74
2019-05-23T23:28:50.175Z,77.49
2019-05-23T23:31:22.426Z,77.14
2019-05-23T23:33:55.368Z,76.72
2019-05-23T23:36:28.497Z,77.16
2019-05-23T23:39:00.666Z,76.93
2019-05-23T23:41:32.527Z,76.84
2019-05-23T23:44:05.619Z,76.62
2019-05-23T23:46:56.830Z,76.89
2019-05-23T23:49:46.710Z,76.84
2019-05-23T23:52:37.317Z,77.43
2019-05-23T23:55:28.331Z,78.48
2019-05-23T23:58:01.342Z,77.95
